LECO/LCG METAR and TAF weather

Enter ICAO airport designator
Station Type Date Time Source
LECO METAR 2021/01/27 13:00 UTC NOAA

LECO 271300Z 20006KT 160V240 9999 FEW011 BKN020 16/14 Q1025 NOSIG


Station Type Date Time Source
LECO Decoded METAR 2021/01/27 13:00 UTC NOAA

La Coruna / Alvedro, Spain (LECO) 43-18N 008-23W 103M
Jan 27, 2021 - 08:00 AM EST / 2021.01.27 1300 UTC
Wind: from the SSW (200 degrees) at 7 MPH (6 KT) (direction variable):0
Visibility: greater than 7 mile(s):0
Sky conditions: mostly cloudy
Temperature: 60 F (16 C)
Dew Point: 57 F (14 C)
Relative Humidity: 87%
Pressure (altimeter): 30.27 in. Hg (1025 hPa)
ob: LECO 271300Z 20006KT 160V240 9999 FEW011 BKN020 16/14 Q1025 NOSIG
cycle: 13

Station Type Date Time Source
LECO TAF 2021/01/27 09:27 UTC NOAA

TAF LECO 270800Z 2709/2809 19008KT 9999 SCT018 BKN025 TX16/2715Z TN13/2803Z PROB30
TEMPO 2709/2716 BKN014 PROB30
TEMPO 2803/2809 18015G25KT BKN014

Example: see airport list